Axtell, Nebraska
Current Conditions -  °F | °C
As of 6:15 PM on Monday 24 Nov 2014 (Local Time) from KHDE Reporting Station
Clear Clear  
Wind Chill: 30°   Ceiling: Unl
Heat Index: 34°   Visibility: 10mi
Dew Point: 15°   Wind: 5mph
Humidity: 45%   Direction: 350°N
Pressure: 30.01"   Gusts: NA
Location:  40.48°N, 99.13°W
Report Text: KHDE 250015Z AUTO 35004KT 10SM CLR 01/M09 A3001 RMK AO2 T00131095
Loading
Personal Weather Stations






























Interactive Weather Map New forecast layout! Learn more

10-Day Weather Forecast

Advertisements
Track Severe Weather on mobile